sensor_id;sensor_type;location;lat;lon;timestamp;P1;durP1;ratioP1;P2;durP2;ratioP2
57643;SDS011;43474;46.510;6.686;2023-03-14T00:01:58;82.70;;;79.18;;
57643;SDS011;43474;46.510;6.686;2023-03-14T00:04:24;87.22;;;83.50;;
57643;SDS011;43474;46.510;6.686;2023-03-14T00:06:49;83.60;;;80.13;;
57643;SDS011;43474;46.510;6.686;2023-03-14T00:09:16;107.88;;;103.32;;
57643;SDS011;43474;46.510;6.686;2023-03-14T00:11:42;117.00;;;112.03;;
57643;SDS011;43474;46.510;6.686;2023-03-14T00:14:07;111.13;;;106.43;;
57643;SDS011;43474;46.510;6.686;2023-03-14T00:16:33;89.68;;;85.93;;
57643;SDS011;43474;46.510;6.686;2023-03-14T00:18:59;100.32;;;96.05;;
57643;SDS011;43474;46.510;6.686;2023-03-14T00:21:24;107.45;;;102.93;;
57643;SDS011;43474;46.510;6.686;2023-03-14T00:23:50;122.28;;;117.07;;
57643;SDS011;43474;46.510;6.686;2023-03-14T00:26:17;87.55;;;83.85;;
57643;SDS011;43474;46.510;6.686;2023-03-14T00:28:44;125.45;;;120.13;;
57643;SDS011;43474;46.510;6.686;2023-03-14T00:31:11;130.43;;;124.57;;
57643;SDS011;43474;46.510;6.686;2023-03-14T00:33:39;134.88;;;129.15;;
57643;SDS011;43474;46.510;6.686;2023-03-14T00:36:05;131.65;;;125.95;;
57643;SDS011;43474;46.510;6.686;2023-03-14T00:38:34;119.47;;;114.40;;
57643;SDS011;43474;46.510;6.686;2023-03-14T00:41:04;113.25;;;108.45;;
57643;SDS011;43474;46.510;6.686;2023-03-14T00:43:32;101.53;;;97.25;;
57643;SDS011;43474;46.510;6.686;2023-03-14T00:45:58;135.70;;;129.48;;
57643;SDS011;43474;46.510;6.686;2023-03-14T00:48:23;80.28;;;76.88;;
57643;SDS011;43474;46.510;6.686;2023-03-14T00:50:49;60.58;;;58.10;;
57643;SDS011;43474;46.510;6.686;2023-03-14T00:53:15;53.33;;;51.05;;
57643;SDS011;43474;46.510;6.686;2023-03-14T00:55:41;51.63;;;49.50;;
57643;SDS011;43474;46.510;6.686;2023-03-14T00:58:09;52.13;;;50.00;;
57643;SDS011;43474;46.510;6.686;2023-03-14T01:00:35;43.63;;;41.88;;
57643;SDS011;43474;46.510;6.686;2023-03-14T01:03:01;42.35;;;40.63;;
57643;SDS011;43474;46.510;6.686;2023-03-14T01:05:27;37.78;;;36.20;;
57643;SDS011;43474;46.510;6.686;2023-03-14T01:07:53;41.97;;;40.33;;
57643;SDS011;43474;46.510;6.686;2023-03-14T01:10:19;33.80;;;32.47;;
57643;SDS011;43474;46.510;6.686;2023-03-14T01:12:45;47.92;;;45.88;;
57643;SDS011;43474;46.510;6.686;2023-03-14T01:15:10;57.65;;;55.30;;
57643;SDS011;43474;46.510;6.686;2023-03-14T01:17:36;33.15;;;31.85;;
57643;SDS011;43474;46.510;6.686;2023-03-14T01:20:03;58.40;;;55.90;;
57643;SDS011;43474;46.510;6.686;2023-03-14T01:22:30;64.47;;;61.83;;
57643;SDS011;43474;46.510;6.686;2023-03-14T01:24:55;83.55;;;79.70;;
57643;SDS011;43474;46.510;6.686;2023-03-14T01:27:21;64.82;;;62.08;;
57643;SDS011;43474;46.510;6.686;2023-03-14T01:29:47;66.43;;;63.70;;
57643;SDS011;43474;46.510;6.686;2023-03-14T01:32:13;82.55;;;79.15;;
57643;SDS011;43474;46.510;6.686;2023-03-14T01:34:38;80.93;;;77.55;;
57643;SDS011;43474;46.510;6.686;2023-03-14T01:37:04;74.22;;;71.15;;
57643;SDS011;43474;46.510;6.686;2023-03-14T01:39:30;67.03;;;64.22;;
57643;SDS011;43474;46.510;6.686;2023-03-14T01:41:56;71.78;;;68.82;;
57643;SDS011;43474;46.510;6.686;2023-03-14T01:44:21;66.40;;;63.60;;
57643;SDS011;43474;46.510;6.686;2023-03-14T01:46:47;86.95;;;83.38;;
57643;SDS011;43474;46.510;6.686;2023-03-14T01:49:29;88.30;;;84.63;;
57643;SDS011;43474;46.510;6.686;2023-03-14T01:54:39;93.03;;;89.13;;
57643;SDS011;43474;46.510;6.686;2023-03-14T01:59:58;53.85;;;51.67;;
57643;SDS011;43474;46.510;6.686;2023-03-14T02:02:29;71.28;;;68.35;;
57643;SDS011;43474;46.510;6.686;2023-03-14T02:04:55;77.63;;;74.40;;
57643;SDS011;43474;46.510;6.686;2023-03-14T02:07:25;88.50;;;84.82;;
57643;SDS011;43474;46.510;6.686;2023-03-14T02:09:55;83.75;;;80.25;;
57643;SDS011;43474;46.510;6.686;2023-03-14T02:12:22;84.72;;;81.20;;
57643;SDS011;43474;46.510;6.686;2023-03-14T02:14:48;97.30;;;93.25;;
57643;SDS011;43474;46.510;6.686;2023-03-14T02:17:15;75.82;;;72.65;;
57643;SDS011;43474;46.510;6.686;2023-03-14T02:22:45;87.10;;;83.45;;
57643;SDS011;43474;46.510;6.686;2023-03-14T02:25:14;88.45;;;84.75;;
57643;SDS011;43474;46.510;6.686;2023-03-14T02:27:44;92.07;;;88.20;;
57643;SDS011;43474;46.510;6.686;2023-03-14T02:30:15;109.47;;;104.70;;
57643;SDS011;43474;46.510;6.686;2023-03-14T02:32:43;110.53;;;105.85;;
57643;SDS011;43474;46.510;6.686;2023-03-14T02:35:14;114.05;;;109.20;;
57643;SDS011;43474;46.510;6.686;2023-03-14T02:37:48;103.78;;;99.40;;
57643;SDS011;43474;46.510;6.686;2023-03-14T02:40:18;105.10;;;100.68;;
57643;SDS011;43474;46.510;6.686;2023-03-14T02:42:44;107.45;;;102.95;;
57643;SDS011;43474;46.510;6.686;2023-03-14T02:47:39;111.63;;;106.93;;
57643;SDS011;43474;46.510;6.686;2023-03-14T02:50:10;89.70;;;85.95;;
57643;SDS011;43474;46.510;6.686;2023-03-14T02:52:39;84.55;;;81.00;;
57643;SDS011;43474;46.510;6.686;2023-03-14T02:55:05;84.65;;;81.15;;
57643;SDS011;43474;46.510;6.686;2023-03-14T02:57:31;87.07;;;83.45;;
57643;SDS011;43474;46.510;6.686;2023-03-14T03:00:00;88.60;;;84.93;;
57643;SDS011;43474;46.510;6.686;2023-03-14T03:02:26;97.25;;;93.18;;
57643;SDS011;43474;46.510;6.686;2023-03-14T03:04:52;101.18;;;96.82;;
57643;SDS011;43474;46.510;6.686;2023-03-14T03:07:18;92.47;;;88.65;;
57643;SDS011;43474;46.510;6.686;2023-03-14T03:09:44;98.57;;;94.47;;
57643;SDS011;43474;46.510;6.686;2023-03-14T03:12:10;89.43;;;85.57;;
57643;SDS011;43474;46.510;6.686;2023-03-14T03:14:35;94.85;;;90.85;;
57643;SDS011;43474;46.510;6.686;2023-03-14T03:17:03;90.03;;;86.28;;
57643;SDS011;43474;46.510;6.686;2023-03-14T03:19:30;85.15;;;81.63;;
57643;SDS011;43474;46.510;6.686;2023-03-14T03:21:56;77.50;;;74.28;;
57643;SDS011;43474;46.510;6.686;2023-03-14T03:24:22;56.13;;;53.83;;
57643;SDS011;43474;46.510;6.686;2023-03-14T03:26:48;74.57;;;71.50;;
57643;SDS011;43474;46.510;6.686;2023-03-14T03:29:14;72.00;;;69.03;;
57643;SDS011;43474;46.510;6.686;2023-03-14T03:31:40;68.63;;;65.78;;
57643;SDS011;43474;46.510;6.686;2023-03-14T03:34:05;63.30;;;60.65;;
57643;SDS011;43474;46.510;6.686;2023-03-14T03:36:31;63.00;;;60.38;;
57643;SDS011;43474;46.510;6.686;2023-03-14T03:38:56;45.38;;;43.50;;
57643;SDS011;43474;46.510;6.686;2023-03-14T03:41:22;37.25;;;35.78;;
57643;SDS011;43474;46.510;6.686;2023-03-14T03:43:47;33.33;;;32.00;;
57643;SDS011;43474;46.510;6.686;2023-03-14T03:46:14;28.42;;;27.33;;
57643;SDS011;43474;46.510;6.686;2023-03-14T03:48:39;30.25;;;29.05;;
57643;SDS011;43474;46.510;6.686;2023-03-14T03:51:05;29.23;;;28.00;;
57643;SDS011;43474;46.510;6.686;2023-03-14T03:53:31;34.60;;;33.20;;
57643;SDS011;43474;46.510;6.686;2023-03-14T03:55:57;29.50;;;27.98;;
57643;SDS011;43474;46.510;6.686;2023-03-14T03:58:22;33.05;;;31.70;;
57643;SDS011;43474;46.510;6.686;2023-03-14T04:00:48;36.33;;;34.80;;
57643;SDS011;43474;46.510;6.686;2023-03-14T04:03:13;35.83;;;34.22;;
57643;SDS011;43474;46.510;6.686;2023-03-14T04:05:39;33.78;;;32.35;;
57643;SDS011;43474;46.510;6.686;2023-03-14T04:08:04;29.17;;;27.98;;
57643;SDS011;43474;46.510;6.686;2023-03-14T04:10:33;41.97;;;40.17;;
57643;SDS011;43474;46.510;6.686;2023-03-14T04:12:59;43.63;;;41.80;;
57643;SDS011;43474;46.510;6.686;2023-03-14T04:15:25;33.53;;;32.15;;
57643;SDS011;43474;46.510;6.686;2023-03-14T04:17:50;31.60;;;30.30;;
57643;SDS011;43474;46.510;6.686;2023-03-14T04:20:16;30.20;;;29.00;;
57643;SDS011;43474;46.510;6.686;2023-03-14T04:22:42;39.63;;;37.95;;
57643;SDS011;43474;46.510;6.686;2023-03-14T04:25:08;29.35;;;28.15;;
57643;SDS011;43474;46.510;6.686;2023-03-14T04:27:33;30.83;;;29.60;;
57643;SDS011;43474;46.510;6.686;2023-03-14T04:29:59;29.60;;;28.27;;
57643;SDS011;43474;46.510;6.686;2023-03-14T04:32:24;40.95;;;39.15;;
57643;SDS011;43474;46.510;6.686;2023-03-14T04:34:50;28.65;;;27.50;;
57643;SDS011;43474;46.510;6.686;2023-03-14T04:37:15;24.67;;;23.67;;
57643;SDS011;43474;46.510;6.686;2023-03-14T04:39:41;24.27;;;23.17;;
57643;SDS011;43474;46.510;6.686;2023-03-14T04:42:07;20.95;;;20.05;;
57643;SDS011;43474;46.510;6.686;2023-03-14T04:44:33;23.83;;;22.92;;
57643;SDS011;43474;46.510;6.686;2023-03-14T04:46:58;24.73;;;23.73;;
57643;SDS011;43474;46.510;6.686;2023-03-14T04:49:24;39.13;;;37.50;;
57643;SDS011;43474;46.510;6.686;2023-03-14T04:51:49;26.20;;;25.10;;
57643;SDS011;43474;46.510;6.686;2023-03-14T04:54:18;24.25;;;23.30;;
57643;SDS011;43474;46.510;6.686;2023-03-14T04:56:43;24.10;;;23.15;;
57643;SDS011;43474;46.510;6.686;2023-03-14T04:59:09;25.15;;;24.20;;
57643;SDS011;43474;46.510;6.686;2023-03-14T05:01:35;25.05;;;24.10;;
57643;SDS011;43474;46.510;6.686;2023-03-14T05:04:01;25.48;;;24.42;;
57643;SDS011;43474;46.510;6.686;2023-03-14T05:06:26;31.75;;;30.48;;
57643;SDS011;43474;46.510;6.686;2023-03-14T05:08:52;26.05;;;24.92;;
57643;SDS011;43474;46.510;6.686;2023-03-14T05:11:17;28.85;;;27.65;;
57643;SDS011;43474;46.510;6.686;2023-03-14T05:13:43;26.60;;;25.38;;
57643;SDS011;43474;46.510;6.686;2023-03-14T05:16:09;28.10;;;26.95;;
57643;SDS011;43474;46.510;6.686;2023-03-14T05:18:36;37.65;;;36.03;;
57643;SDS011;43474;46.510;6.686;2023-03-14T05:21:02;38.25;;;36.70;;
57643;SDS011;43474;46.510;6.686;2023-03-14T05:23:28;32.35;;;31.00;;
57643;SDS011;43474;46.510;6.686;2023-03-14T05:25:55;39.45;;;37.90;;
57643;SDS011;43474;46.510;6.686;2023-03-14T05:28:20;44.17;;;42.33;;
57643;SDS011;43474;46.510;6.686;2023-03-14T05:30:46;35.00;;;33.50;;
57643;SDS011;43474;46.510;6.686;2023-03-14T05:33:11;29.60;;;28.45;;
57643;SDS011;43474;46.510;6.686;2023-03-14T05:35:37;24.58;;;23.58;;
57643;SDS011;43474;46.510;6.686;2023-03-14T05:38:02;32.40;;;31.13;;
57643;SDS011;43474;46.510;6.686;2023-03-14T05:40:28;28.17;;;27.08;;
57643;SDS011;43474;46.510;6.686;2023-03-14T05:42:54;30.77;;;29.25;;
57643;SDS011;43474;46.510;6.686;2023-03-14T05:45:19;33.15;;;31.75;;
57643;SDS011;43474;46.510;6.686;2023-03-14T05:47:45;30.70;;;29.38;;
57643;SDS011;43474;46.510;6.686;2023-03-14T05:50:11;28.95;;;27.70;;
57643;SDS011;43474;46.510;6.686;2023-03-14T05:52:36;34.22;;;32.88;;
57643;SDS011;43474;46.510;6.686;2023-03-14T05:55:02;29.27;;;28.13;;
57643;SDS011;43474;46.510;6.686;2023-03-14T05:57:28;29.52;;;28.35;;
57643;SDS011;43474;46.510;6.686;2023-03-14T05:59:54;26.80;;;25.67;;
57643;SDS011;43474;46.510;6.686;2023-03-14T06:02:19;32.13;;;30.80;;
57643;SDS011;43474;46.510;6.686;2023-03-14T06:04:45;43.22;;;41.40;;
57643;SDS011;43474;46.510;6.686;2023-03-14T06:07:11;42.63;;;40.50;;
57643;SDS011;43474;46.510;6.686;2023-03-14T06:09:37;63.67;;;60.80;;
57643;SDS011;43474;46.510;6.686;2023-03-14T06:12:03;53.60;;;51.25;;
57643;SDS011;43474;46.510;6.686;2023-03-14T06:14:28;25.40;;;24.30;;
57643;SDS011;43474;46.510;6.686;2023-03-14T06:16:54;70.82;;;67.50;;
57643;SDS011;43474;46.510;6.686;2023-03-14T06:19:20;31.98;;;30.67;;
57643;SDS011;43474;46.510;6.686;2023-03-14T06:21:46;48.28;;;46.15;;
57643;SDS011;43474;46.510;6.686;2023-03-14T06:24:12;32.88;;;31.45;;
57643;SDS011;43474;46.510;6.686;2023-03-14T06:26:37;45.80;;;43.92;;
57643;SDS011;43474;46.510;6.686;2023-03-14T06:29:03;46.28;;;44.28;;
57643;SDS011;43474;46.510;6.686;2023-03-14T06:31:29;149.85;;;142.07;;
57643;SDS011;43474;46.510;6.686;2023-03-14T06:33:56;23.98;;;22.98;;
57643;SDS011;43474;46.510;6.686;2023-03-14T06:36:21;30.50;;;29.20;;
57643;SDS011;43474;46.510;6.686;2023-03-14T06:38:47;56.65;;;54.00;;
57643;SDS011;43474;46.510;6.686;2023-03-14T06:41:12;109.80;;;104.38;;
57643;SDS011;43474;46.510;6.686;2023-03-14T06:43:38;78.53;;;74.72;;
57643;SDS011;43474;46.510;6.686;2023-03-14T06:46:04;32.10;;;30.77;;
57643;SDS011;43474;46.510;6.686;2023-03-14T06:48:29;35.70;;;34.10;;
57643;SDS011;43474;46.510;6.686;2023-03-14T06:50:55;43.28;;;41.35;;
57643;SDS011;43474;46.510;6.686;2023-03-14T06:53:21;63.80;;;61.03;;
57643;SDS011;43474;46.510;6.686;2023-03-14T06:55:46;38.75;;;36.88;;
57643;SDS011;43474;46.510;6.686;2023-03-14T06:58:12;74.72;;;71.47;;
57643;SDS011;43474;46.510;6.686;2023-03-14T07:00:37;71.53;;;68.28;;
57643;SDS011;43474;46.510;6.686;2023-03-14T07:03:03;51.53;;;49.20;;
57643;SDS011;43474;46.510;6.686;2023-03-14T07:05:29;90.28;;;86.32;;
57643;SDS011;43474;46.510;6.686;2023-03-14T07:07:55;208.48;;;197.35;;
57643;SDS011;43474;46.510;6.686;2023-03-14T07:10:21;62.13;;;59.47;;
57643;SDS011;43474;46.510;6.686;2023-03-14T07:12:47;137.13;;;130.88;;
57643;SDS011;43474;46.510;6.686;2023-03-14T07:15:12;146.68;;;140.13;;
57643;SDS011;43474;46.510;6.686;2023-03-14T07:17:38;166.07;;;158.05;;
57643;SDS011;43474;46.510;6.686;2023-03-14T07:20:03;81.88;;;78.18;;
57643;SDS011;43474;46.510;6.686;2023-03-14T07:22:30;184.95;;;176.45;;
57643;SDS011;43474;46.510;6.686;2023-03-14T07:24:55;136.98;;;130.63;;
57643;SDS011;43474;46.510;6.686;2023-03-14T07:27:23;155.98;;;148.65;;
57643;SDS011;43474;46.510;6.686;2023-03-14T07:29:48;109.80;;;104.30;;
57643;SDS011;43474;46.510;6.686;2023-03-14T07:32:14;104.90;;;100.22;;
57643;SDS011;43474;46.510;6.686;2023-03-14T07:34:40;91.93;;;87.78;;
57643;SDS011;43474;46.510;6.686;2023-03-14T07:37:06;119.82;;;114.60;;
57643;SDS011;43474;46.510;6.686;2023-03-14T07:39:32;138.68;;;132.45;;
57643;SDS011;43474;46.510;6.686;2023-03-14T07:41:58;90.55;;;86.47;;
57643;SDS011;43474;46.510;6.686;2023-03-14T07:44:23;228.48;;;217.60;;
57643;SDS011;43474;46.510;6.686;2023-03-14T07:46:49;203.82;;;193.82;;
57643;SDS011;43474;46.510;6.686;2023-03-14T07:49:14;121.63;;;116.28;;
57643;SDS011;43474;46.510;6.686;2023-03-14T07:51:40;140.95;;;134.60;;
57643;SDS011;43474;46.510;6.686;2023-03-14T07:54:05;214.55;;;204.60;;
57643;SDS011;43474;46.510;6.686;2023-03-14T07:56:31;232.43;;;221.50;;
57643;SDS011;43474;46.510;6.686;2023-03-14T07:58:57;185.68;;;174.98;;
57643;SDS011;43474;46.510;6.686;2023-03-14T08:01:23;227.40;;;216.20;;
57643;SDS011;43474;46.510;6.686;2023-03-14T08:03:48;211.45;;;200.95;;
57643;SDS011;43474;46.510;6.686;2023-03-14T08:06:14;206.10;;;196.48;;
57643;SDS011;43474;46.510;6.686;2023-03-14T08:08:39;239.30;;;228.43;;
57643;SDS011;43474;46.510;6.686;2023-03-14T08:11:05;207.50;;;197.85;;
57643;SDS011;43474;46.510;6.686;2023-03-14T08:13:33;198.35;;;189.50;;
57643;SDS011;43474;46.510;6.686;2023-03-14T08:16:00;254.65;;;243.25;;
57643;SDS011;43474;46.510;6.686;2023-03-14T08:18:25;271.15;;;258.73;;
57643;SDS011;43474;46.510;6.686;2023-03-14T08:20:51;226.90;;;216.90;;
57643;SDS011;43474;46.510;6.686;2023-03-14T08:23:16;248.82;;;237.23;;
57643;SDS011;43474;46.510;6.686;2023-03-14T08:25:42;237.98;;;226.00;;
57643;SDS011;43474;46.510;6.686;2023-03-14T08:28:08;224.00;;;213.73;;
57643;SDS011;43474;46.510;6.686;2023-03-14T08:30:34;234.77;;;224.32;;
57643;SDS011;43474;46.510;6.686;2023-03-14T08:32:59;223.43;;;213.32;;
57643;SDS011;43474;46.510;6.686;2023-03-14T08:35:25;222.40;;;212.23;;
57643;SDS011;43474;46.510;6.686;2023-03-14T08:37:51;208.82;;;199.60;;
57643;SDS011;43474;46.510;6.686;2023-03-14T08:40:17;221.95;;;212.02;;
57643;SDS011;43474;46.510;6.686;2023-03-14T08:42:43;210.77;;;200.90;;
57643;SDS011;43474;46.510;6.686;2023-03-14T08:45:14;230.48;;;218.10;;
57643;SDS011;43474;46.510;6.686;2023-03-14T08:47:41;167.02;;;159.63;;
57643;SDS011;43474;46.510;6.686;2023-03-14T08:50:08;218.35;;;205.18;;
57643;SDS011;43474;46.510;6.686;2023-03-14T08:52:34;185.25;;;176.93;;
57643;SDS011;43474;46.510;6.686;2023-03-14T08:55:00;196.85;;;188.13;;
57643;SDS011;43474;46.510;6.686;2023-03-14T08:57:26;129.95;;;124.32;;
57643;SDS011;43474;46.510;6.686;2023-03-14T08:59:55;159.90;;;152.82;;
57643;SDS011;43474;46.510;6.686;2023-03-14T09:02:22;141.15;;;134.93;;
57643;SDS011;43474;46.510;6.686;2023-03-14T09:04:51;163.23;;;155.90;;
57643;SDS011;43474;46.510;6.686;2023-03-14T09:07:18;190.40;;;181.95;;
57643;SDS011;43474;46.510;6.686;2023-03-14T09:09:44;236.35;;;225.43;;
57643;SDS011;43474;46.510;6.686;2023-03-14T09:12:10;148.05;;;141.68;;
57643;SDS011;43474;46.510;6.686;2023-03-14T09:14:36;214.38;;;204.80;;
57643;SDS011;43474;46.510;6.686;2023-03-14T09:17:02;179.55;;;171.65;;
57643;SDS011;43474;46.510;6.686;2023-03-14T09:19:28;231.60;;;221.02;;
57643;SDS011;43474;46.510;6.686;2023-03-14T09:21:54;257.63;;;245.63;;
57643;SDS011;43474;46.510;6.686;2023-03-14T09:24:20;213.82;;;204.23;;
57643;SDS011;43474;46.510;6.686;2023-03-14T09:26:45;226.48;;;216.05;;
57643;SDS011;43474;46.510;6.686;2023-03-14T09:29:11;196.68;;;188.02;;
57643;SDS011;43474;46.510;6.686;2023-03-14T09:31:37;253.23;;;241.55;;
57643;SDS011;43474;46.510;6.686;2023-03-14T09:34:02;225.07;;;214.48;;
57643;SDS011;43474;46.510;6.686;2023-03-14T09:36:28;257.73;;;245.95;;
57643;SDS011;43474;46.510;6.686;2023-03-14T09:38:54;245.52;;;234.43;;
57643;SDS011;43474;46.510;6.686;2023-03-14T09:46:42;265.75;;;253.55;;
57643;SDS011;43474;46.510;6.686;2023-03-14T09:49:11;165.38;;;156.10;;
57643;SDS011;43474;46.510;6.686;2023-03-14T09:51:49;277.20;;;264.70;;
57643;SDS011;43474;46.510;6.686;2023-03-14T09:54:36;299.08;;;285.00;;
57643;SDS011;43474;46.510;6.686;2023-03-14T09:57:04;263.42;;;251.60;;
57643;SDS011;43474;46.510;6.686;2023-03-14T09:59:35;248.25;;;237.20;;
57643;SDS011;43474;46.510;6.686;2023-03-14T10:02:02;245.45;;;234.45;;
57643;SDS011;43474;46.510;6.686;2023-03-14T10:04:39;284.38;;;271.50;;
57643;SDS011;43474;46.510;6.686;2023-03-14T10:07:28;230.35;;;219.60;;
57643;SDS011;43474;46.510;6.686;2023-03-14T10:09:56;192.98;;;184.40;;
57643;SDS011;43474;46.510;6.686;2023-03-14T10:12:32;182.40;;;174.30;;
57643;SDS011;43474;46.510;6.686;2023-03-14T10:15:02;176.43;;;168.48;;
57643;SDS011;43474;46.510;6.686;2023-03-14T10:17:49;181.30;;;172.73;;
57643;SDS011;43474;46.510;6.686;2023-03-14T10:20:35;118.07;;;113.00;;
57643;SDS011;43474;46.510;6.686;2023-03-14T10:23:07;179.00;;;170.85;;
57643;SDS011;43474;46.510;6.686;2023-03-14T10:26:03;277.13;;;261.35;;
57643;SDS011;43474;46.510;6.686;2023-03-14T10:28:32;207.77;;;197.23;;
57643;SDS011;43474;46.510;6.686;2023-03-14T10:31:03;169.43;;;161.80;;
57643;SDS011;43474;46.510;6.686;2023-03-14T10:33:30;152.20;;;145.43;;
57643;SDS011;43474;46.510;6.686;2023-03-14T10:38:42;147.95;;;141.18;;
57643;SDS011;43474;46.510;6.686;2023-03-14T10:41:24;136.05;;;129.98;;
57643;SDS011;43474;46.510;6.686;2023-03-14T10:43:51;129.60;;;123.72;;
57643;SDS011;43474;46.510;6.686;2023-03-14T10:46:20;143.30;;;137.07;;
57643;SDS011;43474;46.510;6.686;2023-03-14T10:48:46;72.30;;;69.32;;
57643;SDS011;43474;46.510;6.686;2023-03-14T10:51:18;106.00;;;101.20;;
57643;SDS011;43474;46.510;6.686;2023-03-14T10:54:02;87.75;;;84.05;;
57643;SDS011;43474;46.510;6.686;2023-03-14T10:56:39;94.50;;;90.50;;
57643;SDS011;43474;46.510;6.686;2023-03-14T10:59:11;95.22;;;90.22;;
57643;SDS011;43474;46.510;6.686;2023-03-14T11:01:41;72.40;;;69.40;;
57643;SDS011;43474;46.510;6.686;2023-03-14T11:07:27;97.18;;;92.95;;
57643;SDS011;43474;46.510;6.686;2023-03-14T11:21:14;50.20;;;48.08;;
57643;SDS011;43474;46.510;6.686;2023-03-14T11:26:53;22.77;;;21.90;;
57643;SDS011;43474;46.510;6.686;2023-03-14T11:32:13;16.05;;;15.23;;
57643;SDS011;43474;46.510;6.686;2023-03-14T11:34:52;16.45;;;15.70;;
57643;SDS011;43474;46.510;6.686;2023-03-14T11:39:47;32.47;;;30.98;;
57643;SDS011;43474;46.510;6.686;2023-03-14T11:42:38;9.48;;;8.98;;
57643;SDS011;43474;46.510;6.686;2023-03-14T11:45:50;17.13;;;16.42;;
57643;SDS011;43474;46.510;6.686;2023-03-14T11:50:43;13.43;;;12.70;;
57643;SDS011;43474;46.510;6.686;2023-03-14T11:53:14;15.45;;;14.57;;
57643;SDS011;43474;46.510;6.686;2023-03-14T11:55:43;22.30;;;21.38;;
57643;SDS011;43474;46.510;6.686;2023-03-14T12:00:52;22.85;;;21.98;;
57643;SDS011;43474;46.510;6.686;2023-03-14T12:03:21;21.42;;;20.45;;
57643;SDS011;43474;46.510;6.686;2023-03-14T12:08:46;23.27;;;22.30;;
57643;SDS011;43474;46.510;6.686;2023-03-14T12:11:17;24.88;;;23.85;;
57643;SDS011;43474;46.510;6.686;2023-03-14T12:13:46;28.50;;;27.27;;
57643;SDS011;43474;46.510;6.686;2023-03-14T12:18:50;23.33;;;22.40;;
57643;SDS011;43474;46.510;6.686;2023-03-14T12:21:17;27.23;;;26.10;;
57643;SDS011;43474;46.510;6.686;2023-03-14T12:23:44;31.52;;;30.13;;
57643;SDS011;43474;46.510;6.686;2023-03-14T12:26:16;30.15;;;28.13;;
57643;SDS011;43474;46.510;6.686;2023-03-14T12:28:51;31.70;;;29.75;;
57643;SDS011;43474;46.510;6.686;2023-03-14T12:34:01;20.42;;;19.48;;
57643;SDS011;43474;46.510;6.686;2023-03-14T12:36:54;20.75;;;19.83;;
57643;SDS011;43474;46.510;6.686;2023-03-14T12:42:12;15.95;;;15.35;;
57643;SDS011;43474;46.510;6.686;2023-03-14T12:44:51;9.65;;;9.25;;
57643;SDS011;43474;46.510;6.686;2023-03-14T12:49:52;14.07;;;13.48;;
57643;SDS011;43474;46.510;6.686;2023-03-14T12:52:30;9.77;;;9.38;;
57643;SDS011;43474;46.510;6.686;2023-03-14T12:55:10;9.70;;;9.30;;
57643;SDS011;43474;46.510;6.686;2023-03-14T12:57:46;9.75;;;9.35;;
57643;SDS011;43474;46.510;6.686;2023-03-14T13:00:37;13.15;;;12.50;;
57643;SDS011;43474;46.510;6.686;2023-03-14T13:05:51;22.00;;;20.85;;
57643;SDS011;43474;46.510;6.686;2023-03-14T13:08:37;22.00;;;21.08;;
57643;SDS011;43474;46.510;6.686;2023-03-14T13:11:09;21.95;;;21.05;;
57643;SDS011;43474;46.510;6.686;2023-03-14T13:13:44;40.03;;;38.38;;
57643;SDS011;43474;46.510;6.686;2023-03-14T13:16:14;94.72;;;90.22;;
57643;SDS011;43474;46.510;6.686;2023-03-14T13:18:48;105.72;;;101.10;;
57643;SDS011;43474;46.510;6.686;2023-03-14T13:21:18;102.80;;;98.43;;
57643;SDS011;43474;46.510;6.686;2023-03-14T13:23:56;98.95;;;94.75;;
57643;SDS011;43474;46.510;6.686;2023-03-14T13:26:40;113.43;;;108.50;;
57643;SDS011;43474;46.510;6.686;2023-03-14T13:29:15;93.82;;;89.80;;
57643;SDS011;43474;46.510;6.686;2023-03-14T13:31:48;122.10;;;116.65;;
57643;SDS011;43474;46.510;6.686;2023-03-14T13:34:15;117.35;;;112.38;;
57643;SDS011;43474;46.510;6.686;2023-03-14T13:36:42;125.25;;;119.80;;
57643;SDS011;43474;46.510;6.686;2023-03-14T13:39:17;132.35;;;126.63;;
57643;SDS011;43474;46.510;6.686;2023-03-14T13:41:45;106.65;;;102.13;;
57643;SDS011;43474;46.510;6.686;2023-03-14T13:44:22;106.40;;;101.72;;
57643;SDS011;43474;46.510;6.686;2023-03-14T13:46:49;143.73;;;137.45;;
57643;SDS011;43474;46.510;6.686;2023-03-14T13:49:21;143.70;;;137.40;;
57643;SDS011;43474;46.510;6.686;2023-03-14T13:51:48;141.75;;;135.50;;
57643;SDS011;43474;46.510;6.686;2023-03-14T13:54:18;127.18;;;121.55;;
57643;SDS011;43474;46.510;6.686;2023-03-14T13:56:45;134.10;;;128.32;;
57643;SDS011;43474;46.510;6.686;2023-03-14T13:59:28;120.65;;;115.40;;
57643;SDS011;43474;46.510;6.686;2023-03-14T14:01:55;97.35;;;93.25;;
57643;SDS011;43474;46.510;6.686;2023-03-14T14:04:24;95.82;;;91.60;;
57643;SDS011;43474;46.510;6.686;2023-03-14T14:06:55;69.90;;;66.80;;
57643;SDS011;43474;46.510;6.686;2023-03-14T14:09:30;108.72;;;103.95;;
57643;SDS011;43474;46.510;6.686;2023-03-14T14:12:02;99.20;;;94.40;;
57643;SDS011;43474;46.510;6.686;2023-03-14T14:14:39;102.17;;;97.47;;
57643;SDS011;43474;46.510;6.686;2023-03-14T14:17:09;104.22;;;99.47;;
57643;SDS011;43474;46.510;6.686;2023-03-14T14:19:38;113.25;;;108.40;;
57643;SDS011;43474;46.510;6.686;2023-03-14T14:22:05;117.35;;;112.35;;
57643;SDS011;43474;46.510;6.686;2023-03-14T14:24:33;125.13;;;119.68;;
57643;SDS011;43474;46.510;6.686;2023-03-14T14:27:02;116.95;;;112.00;;
57643;SDS011;43474;46.510;6.686;2023-03-14T14:29:36;85.85;;;82.00;;
57643;SDS011;43474;46.510;6.686;2023-03-14T14:32:22;116.55;;;111.53;;
57643;SDS011;43474;46.510;6.686;2023-03-14T14:37:33;146.18;;;138.82;;
57643;SDS011;43474;46.510;6.686;2023-03-14T14:42:45;54.10;;;51.83;;
57643;SDS011;43474;46.510;6.686;2023-03-14T14:45:22;49.53;;;47.42;;
57643;SDS011;43474;46.510;6.686;2023-03-14T14:50:20;49.15;;;47.10;;
57643;SDS011;43474;46.510;6.686;2023-03-14T14:52:46;34.40;;;32.92;;
57643;SDS011;43474;46.510;6.686;2023-03-14T14:55:16;31.02;;;29.67;;
57643;SDS011;43474;46.510;6.686;2023-03-14T14:57:51;35.60;;;34.05;;
57643;SDS011;43474;46.510;6.686;2023-03-14T15:00:21;23.27;;;22.20;;
57643;SDS011;43474;46.510;6.686;2023-03-14T15:02:48;30.15;;;28.90;;
57643;SDS011;43474;46.510;6.686;2023-03-14T15:05:18;23.67;;;22.27;;
57643;SDS011;43474;46.510;6.686;2023-03-14T15:07:45;22.17;;;21.23;;
57643;SDS011;43474;46.510;6.686;2023-03-14T15:10:13;14.25;;;13.63;;
57643;SDS011;43474;46.510;6.686;2023-03-14T15:12:43;22.10;;;21.20;;
57643;SDS011;43474;46.510;6.686;2023-03-14T15:15:09;14.05;;;13.50;;
57643;SDS011;43474;46.510;6.686;2023-03-14T15:17:36;15.32;;;14.60;;
57643;SDS011;43474;46.510;6.686;2023-03-14T15:20:03;15.07;;;14.50;;
57643;SDS011;43474;46.510;6.686;2023-03-14T15:22:30;13.18;;;12.48;;
57643;SDS011;43474;46.510;6.686;2023-03-14T15:24:56;15.73;;;15.07;;
57643;SDS011;43474;46.510;6.686;2023-03-14T15:27:22;16.48;;;15.77;;
57643;SDS011;43474;46.510;6.686;2023-03-14T15:29:48;19.42;;;18.52;;
57643;SDS011;43474;46.510;6.686;2023-03-14T15:32:14;16.48;;;15.70;;